Time;durP1;ratioP1;P1;durP2;ratioP2;P2;SDS_P1;SDS_P2;PMS_P1;PMS_P2;Temp;Humidity;BMP_temperature;BMP_pressure;BME280_temperature;BME280_humidity;BME280_pressure;Samples;Min_cycle;Max_cycle;Signal;HPM_P1;HPM_P2
2023/08/29 00:01:44;;;;;;;1.63;1.00;;;;;;;;;;5041199;28;20045;-63
2023/08/29 00:04:10;;;;;;;1.92;1.08;;;;;;;;;;5045853;28;20049;-64
2023/08/29 00:06:36;;;;;;;2.40;1.23;;;;;;;;;;5029383;28;20425;-63
2023/08/29 00:09:03;;;;;;;3.20;1.10;;;;;;;;;;5044287;28;20254;-65
2023/08/29 00:11:29;;;;;;;4.32;1.00;;;;;;;;;;5041489;28;20040;-63
2023/08/29 00:13:56;;;;;;;4.43;1.33;;;;;;;;;;5046056;28;20521;-62
2023/08/29 00:16:22;;;;;;;1.85;1.10;;;;;;;;;;5045551;28;20048;-63
2023/08/29 00:18:51;;;;;;;2.15;1.25;;;;;;;;;;5028943;28;20048;-63
2023/08/29 00:21:17;;;;;;;1.88;1.20;;;;;;;;;;5041544;28;20418;-64
2023/08/29 00:23:43;;;;;;;1.52;1.10;;;;;;;;;;5041771;28;20144;-62
2023/08/29 00:26:08;;;;;;;3.13;1.20;;;;;;;;;;5044839;28;20091;-62
2023/08/29 00:28:34;;;;;;;1.45;1.00;;;;;;;;;;5039840;28;20056;-63
2023/08/29 00:31:00;;;;;;;1.63;1.13;;;;;;;;;;5022824;28;20477;-63
2023/08/29 00:33:28;;;;;;;2.03;0.95;;;;;;;;;;5041805;28;20049;-62
2023/08/29 00:35:54;;;;;;;1.63;0.98;;;;;;;;;;5044581;28;20037;-63
2023/08/29 00:38:20;;;;;;;2.17;1.10;;;;;;;;;;5043518;28;20052;-63
2023/08/29 00:40:45;;;;;;;1.88;1.20;;;;;;;;;;5044446;28;20102;-63
2023/08/29 00:43:12;;;;;;;1.70;1.05;;;;;;;;;;5047449;28;20041;-65
2023/08/29 00:45:37;;;;;;;1.13;0.98;;;;;;;;;;5038933;28;20053;-62
2023/08/29 00:48:06;;;;;;;1.63;1.00;;;;;;;;;;5040610;28;20045;-62
2023/08/29 00:50:33;;;;;;;1.33;0.90;;;;;;;;;;5034072;28;20049;-61
2023/08/29 00:53:03;;;;;;;2.25;0.90;;;;;;;;;;5037469;28;20053;-63
2023/08/29 00:55:33;;;;;;;1.42;0.80;;;;;;;;;;5047647;28;20074;-62
2023/08/29 00:58:01;;;;;;;2.05;1.20;;;;;;;;;;5047318;28;20045;-63
2023/08/29 01:00:28;;;;;;;1.40;1.00;;;;;;;;;;5049467;28;20151;-62
2023/08/29 01:02:55;;;;;;;1.70;1.10;;;;;;;;;;5048076;28;20119;-63
2023/08/29 01:05:21;;;;;;;1.50;0.80;;;;;;;;;;5051481;28;20072;-63
2023/08/29 01:07:51;;;;;;;1.30;0.80;;;;;;;;;;5050816;28;20077;-62
2023/08/29 01:10:21;;;;;;;1.67;0.90;;;;;;;;;;5039989;28;20456;-62
2023/08/29 01:13:08;;;;;;;1.52;0.90;;;;;;;;;;5045733;28;20037;-61
2023/08/29 01:15:35;;;;;;;1.70;0.80;;;;;;;;;;5041454;28;20136;-62
2023/08/29 01:18:03;;;;;;;1.77;1.10;;;;;;;;;;5052478;28;20056;-63
2023/08/29 01:20:34;;;;;;;1.95;1.00;;;;;;;;;;5051504;28;20064;-63
2023/08/29 01:23:21;;;;;;;3.25;1.23;;;;;;;;;;5050577;28;20053;-65
2023/08/29 01:26:11;;;;;;;1.70;1.05;;;;;;;;;;5048502;28;20131;-62
2023/08/29 01:28:38;;;;;;;2.78;1.00;;;;;;;;;;5039703;28;20474;-64
2023/08/29 01:31:05;;;;;;;1.98;0.90;;;;;;;;;;5047768;28;20118;-62
2023/08/29 01:33:31;;;;;;;2.75;1.08;;;;;;;;;;5052047;28;20087;-64
2023/08/29 01:35:57;;;;;;;0.93;0.68;;;;;;;;;;5039373;28;20056;-62
2023/08/29 01:38:23;;;;;;;1.33;0.98;;;;;;;;;;5050350;28;20045;-64
2023/08/29 01:40:50;;;;;;;2.30;1.00;;;;;;;;;;5049833;28;20516;-64
2023/08/29 01:43:16;;;;;;;1.88;1.02;;;;;;;;;;5037934;28;20038;-63
2023/08/29 01:45:42;;;;;;;1.42;1.00;;;;;;;;;;5048870;28;20044;-62
2023/08/29 01:48:11;;;;;;;1.70;1.10;;;;;;;;;;5029525;28;20509;-64
2023/08/29 01:50:37;;;;;;;2.67;1.10;;;;;;;;;;5049265;28;20144;-61
2023/08/29 01:53:04;;;;;;;1.73;0.90;;;;;;;;;;5042115;28;20053;-61
2023/08/29 01:55:30;;;;;;;1.83;1.00;;;;;;;;;;5045443;28;20474;-62
2023/08/29 01:57:58;;;;;;;3.25;1.10;;;;;;;;;;5038775;28;20037;-63
2023/08/29 02:00:25;;;;;;;3.85;1.20;;;;;;;;;;5044971;28;20682;-62
2023/08/29 02:02:51;;;;;;;2.60;1.30;;;;;;;;;;5044155;28;20053;-62
2023/08/29 02:05:17;;;;;;;3.17;1.13;;;;;;;;;;5038432;28;20041;-63
2023/08/29 02:07:44;;;;;;;3.20;1.10;;;;;;;;;;5049412;28;20064;-62
2023/08/29 02:10:10;;;;;;;3.15;1.23;;;;;;;;;;5045588;28;20056;-64
2023/08/29 02:12:36;;;;;;;1.75;1.05;;;;;;;;;;5037606;28;20280;-64
2023/08/29 02:15:04;;;;;;;2.22;0.98;;;;;;;;;;5048509;28;20075;-62
2023/08/29 02:17:32;;;;;;;2.05;1.20;;;;;;;;;;5045745;28;20504;-62
2023/08/29 02:19:58;;;;;;;2.58;1.30;;;;;;;;;;5042792;28;20061;-61
2023/08/29 02:22:24;;;;;;;2.47;1.20;;;;;;;;;;5048938;28;20041;-62
2023/08/29 02:24:50;;;;;;;1.25;0.93;;;;;;;;;;5046093;28;20105;-61
2023/08/29 02:27:16;;;;;;;5.40;0.98;;;;;;;;;;5039573;28;20045;-62
2023/08/29 02:29:42;;;;;;;2.97;1.10;;;;;;;;;;5039459;28;20052;-63
2023/08/29 02:32:08;;;;;;;1.42;1.02;;;;;;;;;;5047843;28;20052;-62
2023/08/29 02:34:34;;;;;;;7.32;1.02;;;;;;;;;;5030831;28;20566;-61
2023/08/29 02:37:00;;;;;;;1.50;0.95;;;;;;;;;;5047530;28;20061;-62
2023/08/29 02:39:26;;;;;;;1.98;1.00;;;;;;;;;;5045765;28;20052;-62
2023/08/29 02:41:54;;;;;;;2.97;1.10;;;;;;;;;;5047115;28;20049;-60
2023/08/29 02:44:20;;;;;;;3.08;1.08;;;;;;;;;;5040727;28;20100;-64
2023/08/29 02:46:46;;;;;;;2.17;0.98;;;;;;;;;;5029149;28;20344;-65
2023/08/29 02:49:11;;;;;;;2.63;1.10;;;;;;;;;;5045536;28;20060;-61
2023/08/29 02:51:37;;;;;;;1.63;0.90;;;;;;;;;;5045575;28;20352;-61
2023/08/29 02:54:03;;;;;;;2.65;1.10;;;;;;;;;;5046872;28;20460;-63
2023/08/29 02:56:30;;;;;;;1.35;0.93;;;;;;;;;;5028201;28;20056;-62
2023/08/29 02:58:55;;;;;;;2.17;1.25;;;;;;;;;;5045278;28;20041;-62
2023/08/29 03:01:22;;;;;;;3.13;1.10;;;;;;;;;;5037687;28;20053;-62
2023/08/29 03:03:48;;;;;;;1.45;1.00;;;;;;;;;;5042961;28;20041;-65
2023/08/29 03:06:14;;;;;;;2.35;1.10;;;;;;;;;;5045985;28;20061;-61
2023/08/29 03:08:40;;;;;;;3.13;1.10;;;;;;;;;;5042230;28;20496;-67
2023/08/29 03:11:08;;;;;;;2.55;1.30;;;;;;;;;;5047349;28;20072;-63
2023/08/29 03:13:34;;;;;;;2.95;1.00;;;;;;;;;;5048806;28;20409;-62
2023/08/29 03:16:00;;;;;;;2.13;1.30;;;;;;;;;;5047877;28;20047;-61
2023/08/29 03:18:27;;;;;;;2.95;1.00;;;;;;;;;;5047181;28;20091;-62
2023/08/29 03:20:53;;;;;;;2.85;1.20;;;;;;;;;;5040896;28;20053;-61
2023/08/29 03:23:19;;;;;;;2.58;1.00;;;;;;;;;;5045590;28;20052;-62
2023/08/29 03:25:45;;;;;;;5.82;1.20;;;;;;;;;;5045212;28;20049;-61
2023/08/29 03:28:11;;;;;;;2.22;1.10;;;;;;;;;;5040382;28;20053;-62
2023/08/29 03:30:37;;;;;;;3.15;0.93;;;;;;;;;;5036353;28;20064;-61
2023/08/29 03:33:03;;;;;;;5.45;1.40;;;;;;;;;;5044297;28;20052;-62
2023/08/29 03:35:29;;;;;;;2.72;1.20;;;;;;;;;;5042547;28;20484;-63
2023/08/29 03:37:55;;;;;;;1.98;0.90;;;;;;;;;;5045465;28;20060;-63
2023/08/29 03:40:21;;;;;;;2.38;1.27;;;;;;;;;;5045846;28;20057;-62
2023/08/29 03:42:47;;;;;;;2.63;1.10;;;;;;;;;;5046367;28;20063;-63
2023/08/29 03:45:13;;;;;;;5.55;1.48;;;;;;;;;;5045007;28;20064;-60
2023/08/29 03:47:39;;;;;;;2.25;1.23;;;;;;;;;;5045427;28;20052;-64
2023/08/29 03:50:06;;;;;;;1.77;1.30;;;;;;;;;;5047419;28;20055;-61
2023/08/29 03:52:32;;;;;;;2.72;1.02;;;;;;;;;;5043705;28;20102;-61
2023/08/29 03:54:58;;;;;;;1.35;1.00;;;;;;;;;;5034360;28;20041;-63
2023/08/29 03:57:26;;;;;;;3.50;1.10;;;;;;;;;;5042984;28;20071;-62
2023/08/29 03:59:52;;;;;;;3.05;1.10;;;;;;;;;;5042187;28;20045;-62
2023/08/29 04:02:18;;;;;;;3.00;0.90;;;;;;;;;;5042259;28;20053;-62
2023/08/29 04:04:45;;;;;;;2.50;1.10;;;;;;;;;;5023291;28;20048;-62
2023/08/29 04:07:11;;;;;;;3.50;1.08;;;;;;;;;;5020745;28;20619;-61
2023/08/29 04:09:39;;;;;;;2.50;1.25;;;;;;;;;;5038045;28;20057;-62
2023/08/29 04:12:10;;;;;;;6.00;1.23;;;;;;;;;;5038667;28;20086;-63
2023/08/29 04:14:37;;;;;;;2.08;1.08;;;;;;;;;;5028067;28;20412;-63
2023/08/29 04:17:03;;;;;;;3.47;1.02;;;;;;;;;;5045096;28;20049;-62
2023/08/29 04:19:30;;;;;;;2.88;1.10;;;;;;;;;;5046230;28;20322;-63
2023/08/29 04:21:56;;;;;;;2.08;1.10;;;;;;;;;;5045448;28;20045;-62
2023/08/29 04:24:23;;;;;;;2.33;1.15;;;;;;;;;;5039327;28;20118;-63
2023/08/29 04:26:48;;;;;;;2.58;1.20;;;;;;;;;;5040938;28;20409;-63
2023/08/29 04:29:14;;;;;;;5.25;1.30;;;;;;;;;;5042796;28;20052;-63
2023/08/29 04:31:41;;;;;;;2.45;1.02;;;;;;;;;;5036965;28;20083;-63
2023/08/29 04:34:07;;;;;;;3.55;1.20;;;;;;;;;;5043879;28;20126;-64
2023/08/29 04:36:33;;;;;;;2.17;1.30;;;;;;;;;;5043491;28;20076;-70
2023/08/29 04:38:59;;;;;;;3.03;1.30;;;;;;;;;;5039568;28;20049;-64
2023/08/29 04:41:26;;;;;;;1.38;1.05;;;;;;;;;;5040328;28;20109;-62
2023/08/29 04:43:52;;;;;;;2.00;1.20;;;;;;;;;;5040533;28;20041;-64
2023/08/29 04:46:17;;;;;;;1.55;1.10;;;;;;;;;;5045364;28;20513;-63
2023/08/29 04:48:44;;;;;;;7.75;1.30;;;;;;;;;;5049120;28;20056;-63
2023/08/29 04:51:10;;;;;;;3.15;1.10;;;;;;;;;;5052156;28;20037;-63
2023/08/29 04:53:36;;;;;;;2.38;1.10;;;;;;;;;;5051026;28;20053;-63
2023/08/29 04:56:03;;;;;;;3.10;1.08;;;;;;;;;;5050750;28;20493;-62
2023/08/29 04:58:30;;;;;;;3.38;1.10;;;;;;;;;;5042604;28;20090;-62
2023/08/29 05:00:58;;;;;;;2.78;1.00;;;;;;;;;;5041588;28;20508;-62
2023/08/29 05:03:24;;;;;;;2.97;1.30;;;;;;;;;;5040755;28;20481;-63
2023/08/29 05:05:53;;;;;;;1.73;1.15;;;;;;;;;;5028949;28;20045;-62
2023/08/29 05:08:19;;;;;;;3.30;1.00;;;;;;;;;;5047992;28;20071;-62
2023/08/29 05:10:45;;;;;;;2.70;1.20;;;;;;;;;;5039029;28;20493;-63
2023/08/29 05:13:11;;;;;;;4.00;1.10;;;;;;;;;;5044517;28;20186;-64
2023/08/29 05:15:37;;;;;;;5.03;1.10;;;;;;;;;;5044447;28;20511;-62
2023/08/29 05:18:03;;;;;;;3.03;1.10;;;;;;;;;;5029868;28;20056;-64
2023/08/29 05:20:30;;;;;;;2.38;0.98;;;;;;;;;;5044005;28;20053;-61
2023/08/29 05:22:56;;;;;;;4.63;1.00;;;;;;;;;;5050685;28;20064;-61
2023/08/29 05:25:23;;;;;;;1.98;0.90;;;;;;;;;;5046747;28;20258;-63
2023/08/29 05:27:49;;;;;;;2.80;1.13;;;;;;;;;;5040263;28;20409;-62
2023/08/29 05:30:15;;;;;;;5.05;1.02;;;;;;;;;;5043640;28;20044;-61
2023/08/29 05:32:42;;;;;;;3.92;1.05;;;;;;;;;;5044139;28;20049;-62
2023/08/29 05:35:08;;;;;;;2.83;1.00;;;;;;;;;;5030231;28;20061;-63
2023/08/29 05:37:34;;;;;;;3.88;1.10;;;;;;;;;;5024496;28;20052;-62
2023/08/29 05:40:00;;;;;;;3.20;1.33;;;;;;;;;;5038466;28;20413;-63
2023/08/29 05:42:26;;;;;;;7.40;1.17;;;;;;;;;;5041801;28;20190;-63
2023/08/29 05:44:52;;;;;;;4.40;1.20;;;;;;;;;;5045400;28;20457;-62
2023/08/29 05:47:19;;;;;;;2.75;1.15;;;;;;;;;;5050020;28;20136;-64
2023/08/29 05:49:46;;;;;;;4.95;1.20;;;;;;;;;;5046334;28;20132;-64
2023/08/29 05:52:12;;;;;;;3.63;1.17;;;;;;;;;;5039194;28;20060;-64
2023/08/29 05:54:38;;;;;;;4.88;1.20;;;;;;;;;;5041496;28;20425;-64
2023/08/29 05:57:05;;;;;;;2.42;1.00;;;;;;;;;;5050456;28;20511;-63
2023/08/29 05:59:31;;;;;;;3.13;1.08;;;;;;;;;;5042192;28;20628;-64
2023/08/29 06:01:57;;;;;;;3.20;0.93;;;;;;;;;;5039961;28;20158;-66
2023/08/29 06:04:23;;;;;;;1.73;0.90;;;;;;;;;;5038099;28;20041;-64
2023/08/29 06:06:50;;;;;;;4.28;1.02;;;;;;;;;;5031833;28;20051;-64
2023/08/29 06:09:18;;;;;;;10.65;1.48;;;;;;;;;;5039105;28;20262;-65
2023/08/29 06:11:45;;;;;;;2.05;1.13;;;;;;;;;;5045054;28;20061;-66
2023/08/29 06:14:12;;;;;;;1.13;0.80;;;;;;;;;;5038978;28;20060;-64
2023/08/29 06:16:38;;;;;;;3.60;1.23;;;;;;;;;;5029961;28;20417;-63
2023/08/29 06:19:04;;;;;;;3.90;1.55;;;;;;;;;;5048135;28;20051;-64
2023/08/29 06:21:30;;;;;;;6.70;1.50;;;;;;;;;;5027756;28;20060;-67
2023/08/29 06:23:56;;;;;;;2.38;1.10;;;;;;;;;;5044471;28;20489;-67
2023/08/29 06:26:22;;;;;;;9.95;1.38;;;;;;;;;;5044929;28;20064;-65
2023/08/29 06:28:48;;;;;;;2.58;1.13;;;;;;;;;;5046433;28;20041;-64
2023/08/29 06:31:14;;;;;;;3.70;1.00;;;;;;;;;;5041384;28;20049;-66
2023/08/29 06:33:41;;;;;;;4.10;1.08;;;;;;;;;;5047143;28;20424;-64
2023/08/29 06:36:09;;;;;;;3.03;1.20;;;;;;;;;;5046401;28;20044;-64
2023/08/29 06:38:34;;;;;;;2.42;0.90;;;;;;;;;;5037630;28;20109;-64
2023/08/29 06:41:01;;;;;;;2.05;0.88;;;;;;;;;;5037113;28;20094;-63
2023/08/29 06:43:26;;;;;;;1.92;1.00;;;;;;;;;;5040067;28;20470;-63
2023/08/29 06:45:53;;;;;;;2.90;0.90;;;;;;;;;;5040217;28;20409;-63
2023/08/29 06:48:19;;;;;;;3.08;0.98;;;;;;;;;;5048540;28;20045;-65
2023/08/29 06:50:46;;;;;;;2.33;1.30;;;;;;;;;;5040481;28;20121;-64
2023/08/29 06:53:12;;;;;;;1.10;0.68;;;;;;;;;;5043322;28;20107;-64
2023/08/29 06:55:39;;;;;;;3.67;1.10;;;;;;;;;;5046686;28;20060;-63
2023/08/29 06:58:05;;;;;;;2.92;1.00;;;;;;;;;;5041769;28;20659;-65
2023/08/29 07:00:32;;;;;;;2.72;1.15;;;;;;;;;;5042320;28;20061;-67
2023/08/29 07:02:58;;;;;;;4.78;1.50;;;;;;;;;;5045569;28;20071;-65
2023/08/29 07:05:26;;;;;;;6.60;1.50;;;;;;;;;;5046472;28;20059;-67
2023/08/29 07:07:52;;;;;;;4.78;1.20;;;;;;;;;;5047493;28;20057;-65
2023/08/29 07:10:19;;;;;;;5.53;1.25;;;;;;;;;;5046613;28;20052;-66
2023/08/29 07:12:45;;;;;;;5.78;1.60;;;;;;;;;;5040361;28;20053;-70
2023/08/29 07:15:12;;;;;;;5.63;1.42;;;;;;;;;;5031590;28;20041;-63
2023/08/29 07:17:37;;;;;;;4.45;1.60;;;;;;;;;;5042844;28;20501;-67
2023/08/29 07:20:11;;;;;;;7.28;1.58;;;;;;;;;;5046577;28;20045;-66
2023/08/29 07:22:38;;;;;;;3.55;1.27;;;;;;;;;;5047010;28;20055;-64
2023/08/29 07:25:05;;;;;;;4.97;1.23;;;;;;;;;;5046052;28;20095;-64
2023/08/29 07:27:31;;;;;;;7.60;1.20;;;;;;;;;;5036242;28;20071;-66
2023/08/29 07:29:57;;;;;;;6.10;1.40;;;;;;;;;;5045963;28;20448;-64
2023/08/29 07:32:23;;;;;;;6.32;1.48;;;;;;;;;;5044500;28;20060;-66
2023/08/29 07:34:51;;;;;;;6.78;1.42;;;;;;;;;;5038382;28;20080;-65
2023/08/29 07:37:17;;;;;;;5.38;1.40;;;;;;;;;;5040096;28;20049;-65
2023/08/29 07:39:43;;;;;;;5.13;1.70;;;;;;;;;;5047014;28;20151;-65
2023/08/29 07:42:11;;;;;;;6.88;1.67;;;;;;;;;;5045738;28;20497;-65
2023/08/29 07:44:37;;;;;;;3.38;1.20;;;;;;;;;;5042268;28;20079;-65
2023/08/29 07:47:02;;;;;;;3.05;1.35;;;;;;;;;;5017178;28;20041;-66
2023/08/29 07:49:29;;;;;;;5.82;1.33;;;;;;;;;;5041855;28;20040;-63
2023/08/29 07:51:55;;;;;;;10.00;1.92;;;;;;;;;;5034074;28;20049;-67
2023/08/29 07:54:21;;;;;;;8.13;1.30;;;;;;;;;;5039300;28;20046;-64
2023/08/29 07:56:47;;;;;;;5.28;1.60;;;;;;;;;;5028379;28;20041;-64
2023/08/29 07:59:14;;;;;;;7.53;2.05;;;;;;;;;;5036846;28;20492;-64
2023/08/29 08:01:41;;;;;;;12.73;2.28;;;;;;;;;;5042149;28;20053;-65
2023/08/29 08:04:08;;;;;;;5.82;2.13;;;;;;;;;;5042122;28;20055;-66
2023/08/29 08:06:34;;;;;;;8.60;3.22;;;;;;;;;;5038254;28;20049;-65
2023/08/29 08:09:03;;;;;;;8.88;3.03;;;;;;;;;;5047976;28;20511;-64
2023/08/29 08:11:30;;;;;;;10.65;2.20;;;;;;;;;;5039424;28;20136;-64
2023/08/29 08:13:57;;;;;;;7.95;2.00;;;;;;;;;;5034659;28;20052;-67
2023/08/29 08:16:23;;;;;;;4.05;1.40;;;;;;;;;;5042135;28;20443;-62
2023/08/29 08:18:49;;;;;;;5.28;1.45;;;;;;;;;;5046686;28;20394;-64
2023/08/29 08:21:15;;;;;;;2.17;0.93;;;;;;;;;;5052267;28;20075;-64
2023/08/29 08:23:42;;;;;;;7.25;1.15;;;;;;;;;;5036335;28;20087;-65
2023/08/29 08:26:08;;;;;;;9.45;1.20;;;;;;;;;;5027664;28;20484;-64
2023/08/29 08:28:36;;;;;;;4.90;0.90;;;;;;;;;;5045579;28;20053;-63
2023/08/29 08:31:02;;;;;;;2.03;0.70;;;;;;;;;;5043589;28;20107;-64
2023/08/29 08:34:10;;;;;;;4.80;1.00;;;;;;;;;;5025614;28;20107;-65
2023/08/29 08:37:48;;;;;;;4.30;1.05;;;;;;;;;;5039475;28;20037;-64
2023/08/29 08:41:29;;;;;;;3.22;0.90;;;;;;;;;;5035367;28;20080;-65
2023/08/29 08:45:10;;;;;;;1.27;0.88;;;;;;;;;;5036641;28;20083;-64
2023/08/29 08:48:49;;;;;;;1.52;0.88;;;;;;;;;;5037529;28;20036;-65
2023/08/29 08:52:30;;;;;;;1.05;0.88;;;;;;;;;;5039610;28;20064;-63
2023/08/29 08:56:10;;;;;;;5.47;1.00;;;;;;;;;;5034816;28;20087;-64
2023/08/29 08:59:51;;;;;;;2.20;1.10;;;;;;;;;;5040146;28;20120;-64
2023/08/29 09:03:35;;;;;;;1.90;0.90;;;;;;;;;;5036407;28;20072;-65
2023/08/29 09:07:14;;;;;;;2.88;0.90;;;;;;;;;;5038884;28;20451;-65
2023/08/29 09:10:54;;;;;;;1.33;0.88;;;;;;;;;;5036311;28;20046;-64
2023/08/29 09:14:35;;;;;;;1.38;0.70;;;;;;;;;;5035182;28;20061;-63
2023/08/29 09:18:15;;;;;;;2.58;1.10;;;;;;;;;;5036010;28;20049;-67
2023/08/29 09:21:55;;;;;;;3.10;1.08;;;;;;;;;;5037767;28;20053;-64
2023/08/29 09:25:36;;;;;;;2.70;0.98;;;;;;;;;;5038831;28;20166;-65
2023/08/29 09:29:16;;;;;;;2.80;1.40;;;;;;;;;;5037243;28;20176;-65
2023/08/29 09:32:56;;;;;;;3.22;0.90;;;;;;;;;;5034236;28;20045;-65
2023/08/29 09:36:37;;;;;;;6.63;0.90;;;;;;;;;;5040468;28;20049;-64
2023/08/29 09:40:17;;;;;;;2.67;0.90;;;;;;;;;;5040422;28;20041;-65
2023/08/29 09:43:57;;;;;;;3.50;0.90;;;;;;;;;;5040628;28;20485;-66
2023/08/29 09:47:38;;;;;;;0.90;0.80;;;;;;;;;;5038574;28;20048;-67
2023/08/29 09:51:18;;;;;;;4.72;1.00;;;;;;;;;;5039618;28;20459;-64
2023/08/29 09:54:58;;;;;;;4.00;1.10;;;;;;;;;;5044509;28;20060;-64
2023/08/29 09:58:39;;;;;;;2.20;0.80;;;;;;;;;;5041963;28;20555;-65
2023/08/29 10:02:20;;;;;;;1.33;0.90;;;;;;;;;;5038183;28;20056;-66
2023/08/29 10:05:59;;;;;;;2.05;1.17;;;;;;;;;;5037475;28;20131;-64
2023/08/29 10:09:40;;;;;;;3.65;1.15;;;;;;;;;;5039360;28;20044;-64
2023/08/29 10:13:20;;;;;;;3.53;0.90;;;;;;;;;;5038694;28;20507;-64
2023/08/29 10:17:01;;;;;;;1.42;0.82;;;;;;;;;;5037303;28;20051;-66
2023/08/29 10:20:45;;;;;;;3.28;1.02;;;;;;;;;;5043133;28;20052;-64
2023/08/29 10:24:27;;;;;;;3.70;1.08;;;;;;;;;;5042636;28;20093;-64
2023/08/29 10:28:07;;;;;;;1.65;0.85;;;;;;;;;;5038811;28;20045;-64
2023/08/29 10:31:48;;;;;;;1.35;0.80;;;;;;;;;;5035958;28;20079;-65
2023/08/29 10:35:37;;;;;;;2.38;0.80;;;;;;;;;;5045392;28;20041;-68
2023/08/29 10:39:19;;;;;;;3.53;0.90;;;;;;;;;;5040515;28;20444;-68
2023/08/29 10:43:11;;;;;;;2.72;1.10;;;;;;;;;;5036624;28;20048;-64
2023/08/29 10:46:11;;;;;;;1.42;0.90;;;;;;;;;;5041300;28;20047;-64
2023/08/29 10:49:52;;;;;;;5.78;1.10;;;;;;;;;;5036690;28;20076;-65
2023/08/29 10:53:33;;;;;;;2.20;1.00;;;;;;;;;;5041764;28;20104;-66
2023/08/29 10:57:19;;;;;;;1.25;0.80;;;;;;;;;;5037086;28;20103;-63
2023/08/29 11:01:13;;;;;;;1.10;0.88;;;;;;;;;;5038898;28;20045;-64
2023/08/29 11:04:52;;;;;;;1.85;1.00;;;;;;;;;;5038501;28;20231;-64
2023/08/29 11:08:38;;;;;;;4.75;0.93;;;;;;;;;;5044354;28;20045;-63
2023/08/29 11:11:58;;;;;;;;;;;;;;;;;;5032824;28;20053;-64
2023/08/29 11:15:38;;;;;;;1.50;1.02;;;;;;;;;;5037771;28;19920;-68
2023/08/29 11:19:05;;;;;;;8.20;1.02;;;;;;;;;;5039915;28;20154;-65
2023/08/29 11:22:45;;;;;;;1.52;1.00;;;;;;;;;;5039691;28;20111;-65
2023/08/29 11:26:25;;;;;;;9.93;1.40;;;;;;;;;;5038690;28;20081;-64
2023/08/29 11:30:08;;;;;;;4.22;1.40;;;;;;;;;;5041271;28;20520;-65
2023/08/29 11:33:51;;;;;;;7.95;1.27;;;;;;;;;;5038562;28;20608;-65
2023/08/29 11:37:12;;;;;;;;;;;;;;;;;;5037977;28;20045;-65
2023/08/29 11:40:52;;;;;;;5.80;1.63;;;;;;;;;;5036709;28;20519;-63
2023/08/29 11:44:33;;;;;;;2.42;0.88;;;;;;;;;;5038229;28;20053;-66
2023/08/29 11:48:13;;;;;;;4.63;1.10;;;;;;;;;;5040139;28;20037;-65
2023/08/29 11:51:54;;;;;;;2.55;1.10;;;;;;;;;;5038366;28;20041;-65
2023/08/29 11:55:33;;;;;;;3.33;1.10;;;;;;;;;;5040219;28;20049;-64
2023/08/29 11:59:14;;;;;;;5.50;1.20;;;;;;;;;;5038937;28;20078;-66
2023/08/29 12:02:54;;;;;;;2.30;1.08;;;;;;;;;;5038500;28;20060;-64
2023/08/29 12:06:34;;;;;;;2.13;1.00;;;;;;;;;;5039351;28;20501;-67
2023/08/29 12:10:16;;;;;;;2.85;1.20;;;;;;;;;;5033607;28;20080;-65
2023/08/29 12:13:55;;;;;;;2.45;1.30;;;;;;;;;;5040752;28;20497;-64
2023/08/29 12:17:38;;;;;;;7.50;1.30;;;;;;;;;;5037442;28;20124;-65
2023/08/29 12:21:11;;;;;;;4.97;1.55;;;;;;;;;;5041496;28;20049;-67
2023/08/29 12:24:51;;;;;;;2.17;1.30;;;;;;;;;;5038841;28;20053;-66
2023/08/29 12:28:31;;;;;;;2.85;1.30;;;;;;;;;;5036245;28;20346;-64
2023/08/29 12:32:13;;;;;;;3.05;1.10;;;;;;;;;;5037577;28;20041;-66
2023/08/29 12:35:56;;;;;;;3.03;1.27;;;;;;;;;;5031617;28;20067;-64
2023/08/29 12:39:33;;;;;;;4.32;1.30;;;;;;;;;;5033022;28;20049;-64
2023/08/29 12:43:16;;;;;;;5.53;1.48;;;;;;;;;;5032705;28;20049;-67
2023/08/29 12:46:55;;;;;;;3.35;1.05;;;;;;;;;;5036073;28;20542;-64
2023/08/29 12:50:35;;;;;;;4.07;1.30;;;;;;;;;;5035334;28;20175;-63
2023/08/29 12:54:16;;;;;;;3.70;1.05;;;;;;;;;;5036176;28;20060;-64
2023/08/29 12:57:56;;;;;;;5.15;1.30;;;;;;;;;;5038151;28;20037;-69
2023/08/29 13:01:36;;;;;;;5.22;1.20;;;;;;;;;;5033468;28;20044;-70
2023/08/29 13:05:18;;;;;;;3.10;1.30;;;;;;;;;;5035948;28;20153;-64
2023/08/29 13:08:58;;;;;;;5.30;1.20;;;;;;;;;;5038972;28;20115;-67
2023/08/29 13:12:09;;;;;;;5.50;1.35;;;;;;;;;;5036133;28;20061;-66
2023/08/29 13:15:49;;;;;;;4.28;1.38;;;;;;;;;;5039676;28;20049;-64
2023/08/29 13:19:31;;;;;;;3.08;1.10;;;;;;;;;;5039309;28;20041;-64
2023/08/29 13:23:12;;;;;;;2.50;0.85;;;;;;;;;;5038336;28;20546;-66
2023/08/29 13:26:52;;;;;;;3.20;1.02;;;;;;;;;;5041555;28;20041;-66
2023/08/29 13:30:33;;;;;;;2.90;0.98;;;;;;;;;;5037635;28;20389;-63
2023/08/29 13:34:13;;;;;;;2.08;0.90;;;;;;;;;;5032822;28;20560;-68
2023/08/29 13:37:53;;;;;;;2.10;0.88;;;;;;;;;;5038315;28;20132;-67
2023/08/29 13:41:34;;;;;;;3.22;0.85;;;;;;;;;;5036008;28;20045;-64
2023/08/29 13:45:14;;;;;;;8.00;1.08;;;;;;;;;;5036049;28;20057;-65
2023/08/29 13:48:54;;;;;;;1.17;0.77;;;;;;;;;;5039389;28;20080;-65
2023/08/29 13:52:34;;;;;;;8.70;1.13;;;;;;;;;;5033626;28;20129;-67
2023/08/29 13:56:15;;;;;;;3.08;0.93;;;;;;;;;;5036149;28;20083;-66
2023/08/29 13:59:55;;;;;;;5.47;1.10;;;;;;;;;;5039385;28;20553;-69
2023/08/29 14:03:37;;;;;;;2.15;1.00;;;;;;;;;;5029373;28;20073;-64
2023/08/29 14:07:16;;;;;;;3.30;1.10;;;;;;;;;;5034916;28;20049;-66
2023/08/29 14:10:57;;;;;;;4.00;1.10;;;;;;;;;;5038335;28;20059;-66
2023/08/29 14:14:37;;;;;;;4.13;1.20;;;;;;;;;;5035149;28;20052;-66
2023/08/29 14:18:17;;;;;;;2.95;1.02;;;;;;;;;;5036449;28;20057;-66
2023/08/29 14:21:58;;;;;;;4.40;0.98;;;;;;;;;;5032973;28;20076;-65
2023/08/29 14:25:38;;;;;;;3.33;1.13;;;;;;;;;;5037864;28;20068;-65
2023/08/29 14:29:18;;;;;;;7.15;1.05;;;;;;;;;;5037752;28;20817;-66
2023/08/29 14:32:59;;;;;;;1.85;1.00;;;;;;;;;;5035972;28;20102;-66
2023/08/29 14:36:39;;;;;;;2.17;1.02;;;;;;;;;;5035685;28;20134;-65
2023/08/29 14:40:19;;;;;;;2.45;1.10;;;;;;;;;;5038658;28;20140;-65
2023/08/29 14:43:59;;;;;;;3.58;1.40;;;;;;;;;;5037366;28;20041;-65
2023/08/29 14:47:40;;;;;;;4.57;1.00;;;;;;;;;;5033952;28;20052;-65
2023/08/29 14:51:26;;;;;;;2.05;0.82;;;;;;;;;;5035391;28;20544;-70
2023/08/29 14:55:06;;;;;;;3.92;1.10;;;;;;;;;;5034476;28;20102;-67
2023/08/29 14:58:46;;;;;;;3.70;1.10;;;;;;;;;;5035289;28;20061;-66
2023/08/29 15:02:27;;;;;;;4.22;1.08;;;;;;;;;;5031161;28;20139;-66
2023/08/29 15:06:10;;;;;;;7.22;1.30;;;;;;;;;;5035457;28;20126;-66
2023/08/29 15:09:47;;;;;;;5.97;1.10;;;;;;;;;;5036311;28;20440;-66
2023/08/29 15:13:28;;;;;;;2.08;1.10;;;;;;;;;;5031630;28;20072;-66
2023/08/29 15:17:09;;;;;;;3.08;1.10;;;;;;;;;;5033528;28;20080;-67
2023/08/29 15:20:49;;;;;;;2.97;1.00;;;;;;;;;;5036674;28;20060;-67
2023/08/29 15:24:31;;;;;;;2.10;1.10;;;;;;;;;;5037226;28;20574;-64
2023/08/29 15:28:12;;;;;;;5.65;1.30;;;;;;;;;;5038259;28;20053;-66
2023/08/29 15:31:52;;;;;;;2.92;1.40;;;;;;;;;;5034148;28;20044;-65
2023/08/29 15:35:34;;;;;;;3.95;1.23;;;;;;;;;;5034328;28;20428;-65
2023/08/29 15:39:14;;;;;;;2.03;1.08;;;;;;;;;;5033380;28;20191;-64
2023/08/29 15:42:54;;;;;;;1.55;0.98;;;;;;;;;;5038576;28;20067;-64
2023/08/29 15:46:35;;;;;;;2.75;1.00;;;;;;;;;;5034766;28;20619;-67
2023/08/29 15:50:15;;;;;;;6.07;1.40;;;;;;;;;;5036026;28;20053;-70
2023/08/29 15:53:56;;;;;;;6.78;1.40;;;;;;;;;;5035059;28;20736;-65
2023/08/29 15:57:36;;;;;;;4.90;1.20;;;;;;;;;;5036830;28;20045;-66
2023/08/29 16:01:16;;;;;;;4.32;1.80;;;;;;;;;;5035144;28;20470;-64
2023/08/29 16:04:57;;;;;;;3.33;1.23;;;;;;;;;;5034847;28;20051;-65
2023/08/29 16:07:57;;;;;;;5.05;1.40;;;;;;;;;;5033736;28;20049;-68
2023/08/29 16:10:23;;;;;;;7.95;1.60;;;;;;;;;;5038487;28;20044;-66
2023/08/29 16:12:49;;;;;;;8.52;1.50;;;;;;;;;;5038712;28;20041;-64
2023/08/29 16:15:15;;;;;;;17.35;2.70;;;;;;;;;;5035755;28;20067;-65
2023/08/29 16:17:41;;;;;;;3.58;1.23;;;;;;;;;;5038678;28;20061;-68
2023/08/29 16:20:09;;;;;;;5.22;1.55;;;;;;;;;;5030244;28;20076;-66
2023/08/29 16:22:38;;;;;;;6.05;1.60;;;;;;;;;;5036446;28;20068;-66
2023/08/29 16:25:07;;;;;;;11.50;2.10;;;;;;;;;;5034905;28;20052;-70
2023/08/29 16:27:37;;;;;;;3.45;1.45;;;;;;;;;;5036728;28;20064;-65
2023/08/29 16:30:07;;;;;;;3.65;1.20;;;;;;;;;;5037781;28;20065;-66
2023/08/29 16:32:33;;;;;;;5.32;1.38;;;;;;;;;;5038865;28;20111;-68
2023/08/29 16:35:00;;;;;;;1.98;1.17;;;;;;;;;;5037157;28;20064;-65
2023/08/29 16:37:25;;;;;;;4.15;1.30;;;;;;;;;;5039627;28;20041;-63
2023/08/29 16:39:52;;;;;;;6.00;1.40;;;;;;;;;;5040120;28;20052;-67
2023/08/29 16:42:19;;;;;;;3.45;1.45;;;;;;;;;;5037710;28;20444;-65
2023/08/29 16:44:46;;;;;;;2.30;1.25;;;;;;;;;;5028295;28;20517;-65
2023/08/29 16:47:13;;;;;;;5.32;1.55;;;;;;;;;;5038066;28;20063;-65
2023/08/29 16:49:39;;;;;;;5.78;1.30;;;;;;;;;;5042379;28;20057;-66
2023/08/29 16:52:06;;;;;;;3.00;1.35;;;;;;;;;;5027631;28;20057;-68
2023/08/29 16:54:35;;;;;;;1.98;1.13;;;;;;;;;;5041792;28;20053;-66
2023/08/29 16:57:02;;;;;;;2.55;1.17;;;;;;;;;;5041519;28;20049;-65
2023/08/29 16:59:32;;;;;;;6.38;1.50;;;;;;;;;;5038965;28;20061;-65
2023/08/29 17:01:57;;;;;;;2.45;1.40;;;;;;;;;;5040906;28;20042;-63
2023/08/29 17:04:24;;;;;;;3.58;1.80;;;;;;;;;;5038607;28;20080;-64
2023/08/29 17:06:50;;;;;;;6.30;1.65;;;;;;;;;;5037284;28;20883;-67
2023/08/29 17:09:16;;;;;;;5.57;1.48;;;;;;;;;;5037801;28;20049;-65
2023/08/29 17:11:45;;;;;;;5.60;1.40;;;;;;;;;;5038317;28;20091;-65